| time (UTC) | temp F | wind direction | speed knots | gust knots | rain 1hr in | rain 24hr in | rain mn in | humidity % | barometer mb |
| 20260507052648 | 46 | 38 | 0.9 | 3.5 | 0.00 | 0.05 | 0.00 | 83 | 1013.5 |
| 20260507052146 | 46 | 38 | 0.9 | 2.6 | 0.00 | 0.05 | 0.00 | 83 | 1013.6 |
| 20260507051640 | 46 | 32 | 1.7 | 2.6 | 0.00 | 0.05 | 0.00 | 83 | 1013.5 |
| 20260507051142 | 46 | 34 | 0.9 | 2.6 | 0.00 | 0.05 | 0.00 | 83 | 1013.5 |
| 20260507050645 | 46 | 35 | 0.9 | 2.6 | 0.00 | 0.06 | 0.00 | 83 | 1013.5 |
| 20260507050130 | 46 | 28 | 1.7 | 2.6 | 0.00 | 0.06 | 0.00 | 83 | 1013.4 |
| 20260507045629 | 46 | 29 | 0.9 | 2.6 | 0.00 | 0.06 | 0.00 | 83 | 1013.4 |
| 20260507045207 | 46 | 29 | 0.9 | 1.7 | 0.00 | 0.06 | 0.00 | 83 | 1013.4 |
| 20260507044208 | 47 | 32 | 0.9 | 2.6 | 0.00 | 0.06 | 0.00 | 83 | 1013.3 |
| 20260507043130 | 47 | 34 | 0.9 | 3.5 | 0.00 | 0.06 | 0.00 | 83 | 1013.3 |
| 20260507042134 | 47 | 34 | 0.9 | 3.5 | 0.00 | 0.06 | 0.00 | 82 | 1013.2 |
| 20260507035614 | 47 | 35 | 0.0 | 3.5 | 0.00 | 0.06 | 0.00 | 81 | 1013.0 |
| 20260507034605 | 47 | 39 | 0.9 | 4.3 | 0.00 | 0.06 | 0.00 | 81 | 1012.9 |
| 20260507033609 | 48 | 39 | 0.9 | 3.5 | 0.00 | 0.06 | 0.00 | 81 | 1013.0 |
| 20260507033110 | 48 | 38 | 0.9 | 3.5 | 0.00 | 0.06 | 0.00 | 81 | 1012.9 |
| 20260507032651 | 48 | 38 | 0.9 | 4.3 | 0.00 | 0.06 | 0.00 | 81 | 1012.9 |
| 20260507032110 | 48 | 42 | 0.9 | 5.2 | 0.00 | 0.06 | 0.00 | 80 | 1012.9 |
| 20260507031113 | 48 | 27 | 1.7 | 7.8 | 0.00 | 0.06 | 0.00 | 80 | 1012.8 |
| 20260507030121 | 48 | 43 | 0.9 | 5.2 | 0.00 | 0.06 | 0.00 | 80 | 1012.7 |
| 20260507025621 | 48 | 35 | 0.9 | 5.2 | 0.00 | 0.06 | 0.00 | 80 | 1012.6 |
| 20260507025121 | 48 | 22 | 1.7 | 4.3 | 0.00 | 0.06 | 0.00 | 80 | 1012.7 |
| 20260507022607 | 49 | 42 | 1.7 | 6.1 | 0.00 | 0.06 | 0.00 | 80 | 1012.6 |
| 20260507022104 | 49 | 42 | 1.7 | 6.1 | 0.00 | 0.06 | 0.00 | 80 | 1012.5 |
| 20260507021556 | 49 | 35 | 0.9 | 5.2 | 0.00 | 0.06 | 0.00 | 80 | 1012.4 |
| 20260507021055 | 49 | 18 | 1.7 | 4.3 | 0.00 | 0.06 | 0.00 | 80 | 1012.5 |
| 20260507013135 | 50 | 17 | 0.9 | 2.6 | 0.00 | 0.06 | 0.00 | 80 | 1012.3 |
| 20260507012557 | 50 | 34 | 0.0 | 2.6 | 0.00 | 0.06 | 0.00 | 80 | 1012.3 |
| 20260507012052 | 50 | 29 | 0.0 | 2.6 | 0.00 | 0.06 | 0.00 | 80 | 1012.2 |
| 20260507011547 | 50 | 31 | 0.9 | 2.6 | 0.00 | 0.06 | 0.00 | 79 | 1012.2 |
| 20260507004612 | 51 | 31 | 0.0 | 0.9 | 0.00 | 0.06 | 0.00 | 78 | 1012.1 |
| 20260507004156 | 51 | 31 | 0.0 | 1.7 | 0.00 | 0.06 | 0.00 | 77 | 1012.1 |
| 20260507003241 | 51 | 31 | 0.9 | 2.6 | 0.00 | 0.06 | 0.00 | 77 | 1012.1 |
| 20260507002742 | 51 | 29 | 0.9 | 2.6 | 0.00 | 0.06 | 0.00 | 77 | 1012.1 |
| 20260507001704 | 51 | 31 | 0.9 | 3.5 | 0.00 | 0.06 | 0.00 | 77 | 1012.0 |
| 20260506232916 | 51 | 36 | 0.0 | 2.6 | 0.00 | 0.06 | 0.06 | 76 | 1011.8 |
| 20260506225039 | 51 | 36 | 0.0 | 1.7 | 0.00 | 0.06 | 0.06 | 75 | 1011.7 |
| 20260506223509 | 51 | 36 | 0.0 | 3.5 | 0.00 | 0.06 | 0.06 | 75 | 1011.6 |
| 20260506222930 | 51 | 36 | 1.7 | 3.5 | 0.00 | 0.06 | 0.06 | 75 | 1011.6 |
| 20260506222431 | 51 | 36 | 1.7 | 4.3 | 0.00 | 0.06 | 0.06 | 75 | 1011.6 |
| 20260506220909 | 51 | 25 | 0.9 | 2.6 | 0.00 | 0.06 | 0.06 | 75 | 1011.5 |
| 20260506214244 | 51 | 29 | 1.7 | 4.3 | 0.00 | 0.06 | 0.06 | 75 | 1011.3 |
| 20260506213741 | 51 | 28 | 0.9 | 3.5 | 0.00 | 0.06 | 0.06 | 75 | 1011.2 |
| 20260506212217 | 51 | 28 | 0.9 | 6.1 | 0.00 | 0.06 | 0.06 | 75 | 1011.0 |
| 20260506211301 | 51 | 36 | 0.9 | 2.6 | 0.00 | 0.06 | 0.06 | 76 | 1011.8 |
| 20260506205603 | 52 | 27 | 0.9 | 3.5 | 0.00 | 0.06 | 0.06 | 75 | 1010.7 |
| 20260506202920 | 52 | 27 | 1.7 | 3.5 | 0.00 | 0.06 | 0.06 | 75 | 1010.4 |
| 20260506202424 | 52 | 24 | 0.9 | 2.6 | 0.00 | 0.06 | 0.06 | 74 | 1010.4 |
| 20260506201841 | 52 | 24 | 0.9 | 3.5 | 0.00 | 0.06 | 0.06 | 74 | 1010.3 |
| 20260506194915 | 52 | 28 | 2.6 | 11.3 | 0.00 | 0.06 | 0.06 | 73 | 1010.0 |
| 20260506193420 | 52 | 14 | 3.5 | 8.7 | 0.00 | 0.06 | 0.06 | 73 | 1009.9 |
| 20260506192919 | 52 | 31 | 3.5 | 9.6 | 0.00 | 0.06 | 0.06 | 74 | 1009.8 |
| 20260506192414 | 52 | 355 | 3.5 | 9.6 | 0.00 | 0.06 | 0.06 | 75 | 1009.8 |
| 20260506191303 | 52 | 25 | 1.7 | 5.2 | 0.00 | 0.06 | 0.06 | 76 | 1009.6 |
| 20260506190331 | 51 | 22 | 3.5 | 6.1 | 0.00 | 0.06 | 0.06 | 75 | 1009.5 |
| 20260506185335 | 51 | 27 | 3.5 | 8.7 | 0.00 | 0.06 | 0.06 | 77 | 1009.6 |
| 20260506184305 | 51 | 34 | 4.3 | 10.4 | 0.00 | 0.06 | 0.06 | 77 | 1009.6 |
| 20260506182806 | 51 | 24 | 2.6 | 6.1 | 0.00 | 0.06 | 0.06 | 78 | 1009.6 |
| 20260506182348 | 51 | 24 | 1.7 | 6.1 | 0.00 | 0.06 | 0.06 | 78 | 1009.7 |
| 20260506181311 | 51 | 17 | 4.3 | 9.6 | 0.00 | 0.06 | 0.06 | 78 | 1009.7 |
| 20260506180312 | 51 | 29 | 3.5 | 9.6 | 0.00 | 0.06 | 0.06 | 78 | 1009.7 |
| 20260506174258 | 51 | 28 | 1.7 | 7.8 | 0.00 | 0.06 | 0.06 | 79 | 1009.6 |
| 20260506172658 | 51 | 24 | 1.7 | 6.1 | 0.00 | 0.06 | 0.06 | 80 | 1009.6 |
| 20260506171624 | 51 | 22 | 1.7 | 5.2 | 0.00 | 0.06 | 0.06 | 79 | 1009.4 |
| 20260506171244 | 51 | 35 | 1.7 | 6.1 | 0.00 | 0.06 | 0.06 | 79 | 1009.5 |
| 20260506161712 | 51 | 14 | 5.2 | 9.6 | 0.00 | 0.06 | 0.06 | 76 | 1009.3 |
| 20260506161252 | 51 | 24 | 4.3 | 9.6 | 0.00 | 0.06 | 0.06 | 76 | 1009.2 |
| 20260506160219 | 52 | 24 | 3.5 | 9.6 | 0.00 | 0.06 | 0.06 | 75 | 1009.3 |
| 20260506153242 | 52 | 29 | 3.5 | 9.6 | 0.00 | 0.06 | 0.06 | 73 | 1009.1 |
| 20260506150743 | 52 | 28 | 2.6 | 6.1 | 0.00 | 0.06 | 0.06 | 72 | 1008.9 |
| 20260506145705 | 52 | 39 | 1.7 | 7.8 | 0.00 | 0.06 | 0.06 | 72 | 1008.9 |
| 20260506145246 | 52 | 36 | 2.6 | 8.7 | 0.00 | 0.06 | 0.06 | 72 | 1008.9 |
| 20260506142041 | 52 | 28 | 2.6 | 9.6 | 0.00 | 0.06 | 0.06 | 71 | 1008.8 |
| 20260506141537 | 52 | 41 | 3.5 | 9.6 | 0.00 | 0.06 | 0.06 | 71 | 1008.7 |
| 20260506140613 | 52 | 27 | 1.7 | 9.6 | 0.00 | 0.06 | 0.06 | 73 | 1008.8 |
| 20260506135621 | 52 | 28 | 2.6 | 6.1 | 0.00 | 0.06 | 0.06 | 74 | 1008.7 |
| 20260506134130 | 52 | 21 | 2.6 | 6.1 | 0.00 | 0.06 | 0.06 | 74 | 1008.6 |
| 20260506132632 | 52 | 17 | 3.5 | 8.7 | 0.00 | 0.06 | 0.06 | 74 | 1008.6 |
| 20260506125637 | 52 | 32 | 3.5 | 8.7 | 0.00 | 0.06 | 0.06 | 74 | 1008.5 |
| 20260506125130 | 52 | 35 | 3.5 | 8.7 | 0.00 | 0.06 | 0.06 | 74 | 1008.4 |
| 20260506124627 | 52 | 32 | 2.6 | 7.8 | 0.00 | 0.06 | 0.06 | 75 | 1008.4 |
| 20260506124119 | 51 | 35 | 3.5 | 5.2 | 0.00 | 0.06 | 0.06 | 74 | 1008.4 |
| 20260506123621 | 51 | 22 | 1.7 | 5.2 | 0.00 | 0.06 | 0.06 | 74 | 1008.3 |
| 20260506122136 | 51 | 21 | 1.7 | 5.2 | 0.00 | 0.06 | 0.06 | 76 | 1008.4 |
| 20260506114226 | 49 | 41 | 3.5 | 8.7 | 0.00 | 0.06 | 0.06 | 81 | 1008.3 |
| 20260506105212 | 49 | 25 | 4.3 | 7.8 | 0.00 | 0.06 | 0.06 | 87 | 1007.9 |
| 20260506100745 | 49 | 31 | 2.6 | 4.3 | 0.00 | 0.06 | 0.06 | 89 | 1007.6 |
| 20260506095220 | 49 | 340 | 1.7 | 6.1 | 0.00 | 0.06 | 0.06 | 90 | 1007.5 |
| 20260506092206 | 49 | 4 | 1.7 | 4.3 | 0.00 | 0.06 | 0.06 | 91 | 1007.4 |
| 20260506091213 | 48 | 336 | 1.7 | 6.1 | 0.00 | 0.06 | 0.06 | 91 | 1007.3 |
| 20260506073135 | 47 | 34 | 1.7 | 3.5 | 0.02 | 0.05 | 0.06 | 91 | 1007.3 |
| 20260506071649 | 47 | 18 | 0.9 | 2.6 | 0.02 | 0.05 | 0.06 | 91 | 1007.2 |
| 20260506071153 | 47 | 21 | 1.7 | 2.6 | 0.02 | 0.05 | 0.05 | 91 | 1007.1 |
| 20260506070614 | 47 | 11 | 0.9 | 2.6 | 0.01 | 0.04 | 0.05 | 91 | 1007.2 |
| 20260506061529 | 47 | 27 | 0.9 | 3.5 | 0.02 | 0.04 | 0.04 | 91 | 1007.3 |
| 20260506060537 | 48 | 36 | 0.9 | 3.5 | 0.03 | 0.01 | 0.03 | 91 | 1007.3 |